Aeroporto :
LOGIN :

Iscrizione | Disclaimer

   EN    FR    IT 

 










Sommario :    VFR   VFR Marginale   IFR   IFR Intensivo   IFR Molto Intensivo
Visibilità : 
Base nubi : 
>= 8 km
>= 3000ft
5 / 8 km
1000 / 3000 ft
1500m / 5 km
500 / 1000 ft
800 / 1500m
200 / 500 ft
< 800m
< 200 ft
Simboli :   Temporali  Nebbia  Neve Forte  Precipitazioni Forti  Vento > 20 kt
SIGMETs :   Varie  Temporali  Ghiacco  Turbolenza  Onda orograficha  Ceneri Vulcaniche






- Altitudine del aeroporto : 5600 ft
- Codice IATA : SMV


LSZS - Samedan

ULTIMO METAR :
  • 172320Z AUTO VRB03KT 9999 NCD M10/M12 Q1020

METARs OBSOLETI :
  • 172250Z AUTO VRB01KT 9999 BKN090 M09/M11 Q1020
  • 172220Z AUTO 12001KT 9999 OVC090 M09/M11 Q1020
  • 172150Z AUTO VRB02KT 9999 NSC M11/M13 Q1020
  • 172120Z AUTO VRB02KT 9999 BKN095 M10/M12 Q1020
  • 172050Z AUTO 17002KT 9999 NCD M09/M10 Q1021

TAF AMD TAF LSZS
Valido dal 17 a 17 ore il 18 a 00 ore UTC


171710Z 1717/1724 21006KT CAVOK TXM01/1715Z
BECMG 1717/1720 9999 SCT080
ATIS : +41 81 834 93 24



MetMap, La meteo Aeronautica in un colpo d'occhio ! - Copyright ORBIFLY Dicembre 2007 - Disclaimer

ORBIFLY MET'MAP TEAM :

Programmazione e sviluppo : Alexandra Zaïnal
Concezione : Baudouin d'Aumeries
Aiuto per la programmazione : Marc-Olivier Méhu
Supporto tecnico e logistico : Manuel Goepfert
Aiuto per la traduzione : Arnaldo La Scala

Contatto : metmap@orbifly.com




FONTI E CREDITI :

   NOAA